createdAt,value
2023-05-23T00:01:17.165Z,99.90
2023-05-23T00:03:45.747Z,99.90
2023-05-23T00:06:14.818Z,99.90
2023-05-23T00:08:42.856Z,99.90
2023-05-23T00:11:10.923Z,99.90
2023-05-23T00:13:39.861Z,99.90
2023-05-23T00:16:10.730Z,99.90
2023-05-23T00:18:40.258Z,99.90
2023-05-23T00:21:09.876Z,99.90
2023-05-23T00:23:38.482Z,99.90
2023-05-23T00:26:06.773Z,99.90
2023-05-23T00:28:34.871Z,99.90
2023-05-23T00:31:02.924Z,99.90
2023-05-23T00:33:33.236Z,99.90
2023-05-23T00:36:01.591Z,99.90
2023-05-23T00:38:29.785Z,99.90
2023-05-23T00:40:57.889Z,99.90
2023-05-23T00:43:26.269Z,99.90
2023-05-23T00:45:54.484Z,99.90
2023-05-23T00:48:22.850Z,99.90
2023-05-23T00:50:54.203Z,99.90
2023-05-23T00:53:22.926Z,99.90
2023-05-23T00:55:51.240Z,99.90
2023-05-23T00:58:19.945Z,99.90
2023-05-23T01:00:50.329Z,99.90
2023-05-23T01:03:19.043Z,99.90
2023-05-23T01:05:47.292Z,99.90
2023-05-23T01:08:16.978Z,99.90
2023-05-23T01:10:45.141Z,99.90
2023-05-23T01:13:23.080Z,99.90
2023-05-23T01:15:57.949Z,99.90
2023-05-23T01:18:34.416Z,99.90
2023-05-23T01:21:07.772Z,99.90
2023-05-23T01:24:04.955Z,99.90
2023-05-23T01:26:42.413Z,99.90
2023-05-23T01:29:15.666Z,99.90
2023-05-23T01:31:45.401Z,99.90
2023-05-23T01:34:14.927Z,99.90
2023-05-23T01:36:44.831Z,99.90
2023-05-23T01:39:13.184Z,99.90
2023-05-23T01:41:41.509Z,99.90
2023-05-23T01:44:11.220Z,99.90
2023-05-23T01:46:40.601Z,99.90
2023-05-23T01:49:11.042Z,99.90
2023-05-23T01:51:40.777Z,99.90
2023-05-23T01:54:09.059Z,99.90
2023-05-23T01:56:37.337Z,99.90
2023-05-23T01:59:05.855Z,99.90
2023-05-23T02:01:36.075Z,99.90
2023-05-23T02:04:05.216Z,99.90
2023-05-23T02:06:33.205Z,99.90
2023-05-23T02:09:01.462Z,99.90
2023-05-23T02:11:29.553Z,99.90
2023-05-23T02:13:57.746Z,99.90
2023-05-23T02:16:26.891Z,99.90
2023-05-23T02:18:57.664Z,99.90
2023-05-23T02:21:25.823Z,99.90
2023-05-23T02:23:53.928Z,99.90
2023-05-23T02:26:22.074Z,99.90
2023-05-23T02:28:51.032Z,99.90
2023-05-23T02:31:19.175Z,99.90
2023-05-23T02:33:47.576Z,99.90
2023-05-23T02:36:17.531Z,99.90
2023-05-23T02:38:45.615Z,99.90
2023-05-23T02:41:13.869Z,99.90
2023-05-23T02:43:41.952Z,99.90
2023-05-23T02:46:10.059Z,99.90
2023-05-23T02:48:38.209Z,99.90
2023-05-23T02:51:07.236Z,99.90
2023-05-23T02:53:36.707Z,99.90
2023-05-23T02:56:04.950Z,99.90
2023-05-23T02:58:35.492Z,99.90
2023-05-23T03:01:05.445Z,99.90
2023-05-23T03:03:35.801Z,99.90
2023-05-23T03:06:06.303Z,99.90
2023-05-23T03:08:35.848Z,99.90
2023-05-23T03:11:03.902Z,99.90
2023-05-23T03:13:32.215Z,99.90
2023-05-23T03:16:00.358Z,99.90
2023-05-23T03:18:28.585Z,99.90
2023-05-23T03:20:57.052Z,99.90
2023-05-23T03:23:25.574Z,99.90
2023-05-23T03:25:54.983Z,99.90
2023-05-23T03:28:23.022Z,99.90
2023-05-23T03:30:53.010Z,99.90
2023-05-23T03:33:21.073Z,99.90
2023-05-23T03:35:49.186Z,99.90
2023-05-23T03:38:17.342Z,99.90
2023-05-23T03:40:45.745Z,99.90
2023-05-23T03:43:15.354Z,99.90
2023-05-23T03:45:44.954Z,99.90
2023-05-23T03:48:15.967Z,99.90
2023-05-23T03:50:44.348Z,99.90
2023-05-23T03:53:13.378Z,99.90
2023-05-23T03:55:41.657Z,99.90
2023-05-23T03:58:09.949Z,99.90
2023-05-23T04:00:39.915Z,99.90
2023-05-23T04:03:10.680Z,99.90
2023-05-23T04:05:38.994Z,99.90
2023-05-23T04:08:08.248Z,99.90
2023-05-23T04:10:36.660Z,99.90
2023-05-23T04:13:05.200Z,99.90
2023-05-23T04:15:35.388Z,99.90
2023-05-23T04:18:13.054Z,99.90
2023-05-23T04:20:41.291Z,99.90
2023-05-23T04:23:09.625Z,99.90
2023-05-23T04:25:40.920Z,99.90
2023-05-23T04:28:23.163Z,99.90
2023-05-23T04:30:51.339Z,99.90
2023-05-23T04:33:24.703Z,99.90
2023-05-23T04:35:52.810Z,99.90
2023-05-23T04:38:22.169Z,99.90
2023-05-23T04:40:51.114Z,99.90
2023-05-23T04:43:42.459Z,99.90
2023-05-23T04:46:28.224Z,99.90
2023-05-23T04:49:10.090Z,99.90
2023-05-23T04:51:38.383Z,99.90
2023-05-23T04:54:19.181Z,99.90
2023-05-23T04:56:47.386Z,99.90
2023-05-23T04:59:17.385Z,99.90
2023-05-23T05:01:45.522Z,99.90
2023-05-23T05:04:16.132Z,99.90
2023-05-23T05:06:48.106Z,99.90
2023-05-23T05:09:16.258Z,99.90
2023-05-23T05:11:45.099Z,99.90
2023-05-23T05:14:13.184Z,99.90
2023-05-23T05:16:42.762Z,99.90
2023-05-23T05:19:11.249Z,99.90
2023-05-23T05:21:41.009Z,99.90
2023-05-23T05:24:09.598Z,99.90
2023-05-23T05:26:37.842Z,99.90
2023-05-23T05:29:06.356Z,99.90
2023-05-23T05:31:35.996Z,99.90
2023-05-23T05:34:04.476Z,99.90
2023-05-23T05:36:33.923Z,99.90
2023-05-23T05:39:03.774Z,99.90
2023-05-23T05:41:32.270Z,99.90
2023-05-23T05:44:00.385Z,99.90
2023-05-23T05:46:29.383Z,99.90
2023-05-23T05:48:57.715Z,99.90
2023-05-23T05:51:25.797Z,99.90
2023-05-23T05:53:53.893Z,99.90
2023-05-23T05:56:23.702Z,99.90
2023-05-23T05:58:52.562Z,99.90
2023-05-23T06:01:22.110Z,99.90
2023-05-23T06:03:50.358Z,99.90
2023-05-23T06:06:19.762Z,97.30
2023-05-23T06:08:49.135Z,97.80
2023-05-23T06:11:18.534Z,91.70
2023-05-23T06:13:48.000Z,88.00
2023-05-23T06:16:16.427Z,92.90
2023-05-23T06:18:46.366Z,92.00
2023-05-23T06:21:14.495Z,89.80
2023-05-23T06:23:42.913Z,89.90
2023-05-23T06:26:11.104Z,81.90
2023-05-23T06:28:40.673Z,88.10
2023-05-23T06:31:11.003Z,75.30
2023-05-23T06:33:39.380Z,68.00
2023-05-23T06:36:07.820Z,72.30
2023-05-23T06:38:35.922Z,64.10
2023-05-23T06:41:07.019Z,59.10
2023-05-23T06:43:36.587Z,53.80
2023-05-23T06:46:16.399Z,51.00
2023-05-23T06:48:44.718Z,49.20
2023-05-23T06:51:13.156Z,52.10
2023-05-23T06:53:42.750Z,60.10
2023-05-23T06:56:10.872Z,51.80
2023-05-23T06:58:52.196Z,46.00
2023-05-23T07:01:21.797Z,42.00
2023-05-23T07:03:52.535Z,41.40
2023-05-23T07:06:20.819Z,37.40
2023-05-23T07:08:49.067Z,38.70
2023-05-23T07:11:17.766Z,37.10
2023-05-23T07:13:51.347Z,33.90
2023-05-23T07:16:32.292Z,38.20
2023-05-23T07:19:06.161Z,34.00
2023-05-23T07:21:38.502Z,30.50
2023-05-23T07:24:08.332Z,31.40
2023-05-23T07:26:36.701Z,30.30
2023-05-23T07:29:05.123Z,28.60
2023-05-23T07:31:34.627Z,28.70
2023-05-23T07:34:03.084Z,26.90
2023-05-23T07:36:41.053Z,27.10
2023-05-23T07:39:12.428Z,25.30
2023-05-23T07:41:40.704Z,25.00
2023-05-23T07:44:09.644Z,25.90
2023-05-23T07:46:39.651Z,25.70
2023-05-23T07:49:08.043Z,26.00
2023-05-23T07:54:04.309Z,25.00
2023-05-23T07:56:32.901Z,24.20
2023-05-23T07:59:01.516Z,24.50
2023-05-23T08:01:30.243Z,22.60
2023-05-23T08:04:07.557Z,23.70
2023-05-23T08:06:45.673Z,21.40
2023-05-23T08:09:21.393Z,21.00
2023-05-23T08:11:53.148Z,19.60
2023-05-23T08:14:22.832Z,20.50
2023-05-23T08:17:09.143Z,21.10
2023-05-23T08:19:39.207Z,19.10
2023-05-23T08:22:07.695Z,20.70
2023-05-23T08:24:35.875Z,19.10
2023-05-23T08:27:06.770Z,19.30
2023-05-23T08:29:36.678Z,18.30
2023-05-23T08:32:05.255Z,19.30
2023-05-23T08:34:35.139Z,16.80
2023-05-23T08:37:04.659Z,19.90
2023-05-23T08:39:32.738Z,19.70
2023-05-23T08:42:30.138Z,18.90
2023-05-23T08:44:59.183Z,17.60
2023-05-23T08:47:27.542Z,16.90
2023-05-23T08:50:03.049Z,15.30
2023-05-23T08:52:36.245Z,14.60
2023-05-23T08:55:06.147Z,14.50
2023-05-23T08:57:36.984Z,16.90
2023-05-23T09:00:21.174Z,14.70
2023-05-23T09:02:49.541Z,14.50
2023-05-23T09:05:37.636Z,14.10
2023-05-23T09:08:07.740Z,13.90
2023-05-23T09:10:36.183Z,14.20
2023-05-23T09:13:07.626Z,12.10
2023-05-23T09:15:39.222Z,12.70
2023-05-23T09:18:07.400Z,12.20
2023-05-23T09:20:36.143Z,13.40
2023-05-23T09:23:14.070Z,13.20
2023-05-23T09:25:48.194Z,12.30
2023-05-23T09:28:17.167Z,12.70
2023-05-23T09:30:45.564Z,12.30
2023-05-23T09:33:17.096Z,12.60
2023-05-23T09:35:46.833Z,13.30
2023-05-23T09:38:16.479Z,13.20
2023-05-23T09:40:46.867Z,13.00
2023-05-23T09:43:18.738Z,14.30
2023-05-23T09:45:51.234Z,14.50
2023-05-23T09:48:19.480Z,13.20
2023-05-23T09:50:51.386Z,13.10
2023-05-23T09:53:22.699Z,13.10
2023-05-23T09:55:52.855Z,13.00
2023-05-23T09:58:21.972Z,12.40
2023-05-23T10:00:54.486Z,12.40
2023-05-23T10:03:28.445Z,12.30
2023-05-23T10:06:02.529Z,12.60
2023-05-23T10:08:38.115Z,13.00
2023-05-23T10:12:09.267Z,12.90
2023-05-23T10:14:41.950Z,13.00
2023-05-23T10:17:16.804Z,14.10
2023-05-23T10:19:49.781Z,15.20
2023-05-23T10:22:18.366Z,14.80
2023-05-23T10:24:49.215Z,12.40
2023-05-23T10:27:17.709Z,12.90
2023-05-23T10:29:46.868Z,11.80
2023-05-23T10:32:16.084Z,12.30
2023-05-23T10:34:55.643Z,12.00
2023-05-23T10:37:30.861Z,11.60
2023-05-23T10:40:06.057Z,12.10
2023-05-23T10:42:51.268Z,12.70
2023-05-23T10:45:37.774Z,13.00
2023-05-23T10:48:27.683Z,12.20
2023-05-23T10:51:08.173Z,12.40
2023-05-23T10:53:39.209Z,11.50
2023-05-23T10:56:12.871Z,10.30
2023-05-23T10:58:43.464Z,9.40
2023-05-23T11:01:25.647Z,9.90
2023-05-23T11:04:10.057Z,11.30
2023-05-23T11:06:45.240Z,11.30
2023-05-23T11:09:51.484Z,10.70
2023-05-23T11:12:41.459Z,11.00
2023-05-23T11:15:24.057Z,10.90
2023-05-23T11:18:03.023Z,11.80
2023-05-23T11:20:35.967Z,11.20
2023-05-23T11:23:08.895Z,10.90
2023-05-23T11:25:46.531Z,11.70
2023-05-23T11:28:34.026Z,11.90
2023-05-23T11:31:25.831Z,12.20
2023-05-23T11:34:23.882Z,12.40
2023-05-23T11:37:03.496Z,13.00
2023-05-23T11:39:35.905Z,12.40
2023-05-23T11:42:11.073Z,12.60
2023-05-23T11:45:00.419Z,12.90
2023-05-23T11:47:29.152Z,13.30
2023-05-23T11:50:18.543Z,13.70
2023-05-23T11:52:58.007Z,13.60
2023-05-23T11:55:31.600Z,13.50
2023-05-23T11:58:00.795Z,12.90
2023-05-23T12:00:31.690Z,13.50
2023-05-23T12:03:00.126Z,12.20
2023-05-23T12:05:31.767Z,12.40
2023-05-23T12:08:02.789Z,13.00
2023-05-23T12:10:47.352Z,13.10
2023-05-23T12:13:28.039Z,12.40
2023-05-23T12:15:59.692Z,10.60
2023-05-23T12:18:32.480Z,11.10
2023-05-23T12:21:05.905Z,11.20
2023-05-23T12:23:35.275Z,12.30
2023-05-23T12:26:06.852Z,13.90
2023-05-23T12:28:39.914Z,12.60
2023-05-23T12:31:13.943Z,12.70
2023-05-23T12:33:44.001Z,12.60
2023-05-23T12:36:12.595Z,11.30
2023-05-23T12:38:45.181Z,10.20
2023-05-23T12:41:16.496Z,11.70
2023-05-23T12:43:52.031Z,12.50
2023-05-23T12:46:22.096Z,14.10
2023-05-23T12:48:50.342Z,13.00
2023-05-23T12:51:19.024Z,12.70
2023-05-23T12:53:47.223Z,13.30
2023-05-23T12:56:15.258Z,12.50
2023-05-23T12:58:43.560Z,10.90
2023-05-23T13:01:12.166Z,13.50
2023-05-23T13:03:41.618Z,12.10
2023-05-23T13:06:09.741Z,12.30
2023-05-23T13:08:38.065Z,13.60
2023-05-23T13:11:06.605Z,13.90
2023-05-23T13:13:35.076Z,12.20
2023-05-23T13:16:03.248Z,11.10
2023-05-23T13:18:31.315Z,12.30
2023-05-23T13:21:01.015Z,14.20
2023-05-23T13:23:29.572Z,13.20
2023-05-23T13:25:58.667Z,14.60
2023-05-23T13:28:26.894Z,13.70
2023-05-23T13:30:55.194Z,12.30
2023-05-23T13:33:23.954Z,10.30
2023-05-23T13:35:53.069Z,11.70
2023-05-23T13:38:26.643Z,11.80
2023-05-23T13:40:55.725Z,11.20
2023-05-23T13:43:24.306Z,12.40
2023-05-23T13:45:52.666Z,11.00
2023-05-23T13:48:20.654Z,10.10
2023-05-23T13:50:49.258Z,11.40
2023-05-23T13:53:17.332Z,12.90
2023-05-23T13:55:46.748Z,12.30
2023-05-23T13:58:14.864Z,11.00
2023-05-23T14:00:43.203Z,10.80
2023-05-23T14:03:11.960Z,12.40
2023-05-23T14:05:40.223Z,12.10
2023-05-23T14:08:08.305Z,12.20
2023-05-23T14:10:36.365Z,9.60
2023-05-23T14:13:07.480Z,10.10
2023-05-23T14:15:35.771Z,9.70
2023-05-23T14:18:03.893Z,10.10
2023-05-23T14:20:33.147Z,11.00
2023-05-23T14:23:01.363Z,11.70
2023-05-23T14:25:29.444Z,11.10
2023-05-23T14:27:57.660Z,11.00
2023-05-23T14:30:27.091Z,11.60
2023-05-23T14:32:55.422Z,12.80
2023-05-23T14:35:23.655Z,12.40
2023-05-23T14:37:51.652Z,11.80
2023-05-23T14:40:19.998Z,10.60
2023-05-23T14:42:48.399Z,11.20
2023-05-23T14:45:18.647Z,11.70
2023-05-23T14:47:48.738Z,11.30
2023-05-23T14:50:17.200Z,10.10
2023-05-23T14:52:45.322Z,11.00
2023-05-23T14:55:13.590Z,10.50
2023-05-23T14:57:41.652Z,10.80
2023-05-23T15:00:11.609Z,11.60
2023-05-23T15:02:39.921Z,13.20
2023-05-23T15:05:10.055Z,12.90
2023-05-23T15:07:38.742Z,13.80
2023-05-23T15:10:08.486Z,15.20
2023-05-23T15:12:36.651Z,14.10
2023-05-23T15:15:05.240Z,15.10
2023-05-23T15:17:34.222Z,14.50
2023-05-23T15:20:04.411Z,13.90
2023-05-23T15:22:39.283Z,11.30
2023-05-23T15:25:08.681Z,11.80
2023-05-23T15:27:36.868Z,13.00
2023-05-23T15:30:05.692Z,11.50
2023-05-23T15:32:33.737Z,11.40
2023-05-23T15:35:01.893Z,12.10
2023-05-23T15:37:29.998Z,11.70
2023-05-23T15:39:59.447Z,12.50
2023-05-23T15:42:27.470Z,12.40
2023-05-23T15:44:55.826Z,12.20
2023-05-23T15:47:24.046Z,12.90
2023-05-23T15:49:52.135Z,12.80
2023-05-23T15:52:20.453Z,11.80
2023-05-23T15:54:48.596Z,12.10
2023-05-23T15:57:18.041Z,12.40
2023-05-23T15:59:46.133Z,13.20
2023-05-23T16:02:16.085Z,13.10
2023-05-23T16:04:44.165Z,13.10
2023-05-23T16:07:12.397Z,13.40
2023-05-23T16:09:40.580Z,13.30
2023-05-23T16:12:09.362Z,13.50
2023-05-23T16:14:38.824Z,14.20
2023-05-23T16:17:07.712Z,14.20
2023-05-23T16:19:35.945Z,15.50
2023-05-23T16:22:04.161Z,16.80
2023-05-23T16:24:32.574Z,17.20
2023-05-23T16:27:01.333Z,18.00
2023-05-23T16:29:29.516Z,18.40
2023-05-23T16:31:59.186Z,18.30
2023-05-23T16:34:28.363Z,18.10
2023-05-23T16:36:56.576Z,18.80
2023-05-23T16:39:24.937Z,19.10
2023-05-23T16:41:53.221Z,18.50
2023-05-23T16:44:21.547Z,19.50
2023-05-23T16:46:50.244Z,19.80
2023-05-23T16:49:21.469Z,19.80
2023-05-23T16:51:49.629Z,20.10
2023-05-23T16:54:17.871Z,20.50
2023-05-23T16:56:46.038Z,20.50
2023-05-23T16:59:14.298Z,19.50
2023-05-23T17:01:42.483Z,19.40
2023-05-23T17:04:10.691Z,20.60
2023-05-23T17:06:40.210Z,20.30
2023-05-23T17:09:08.548Z,20.60
2023-05-23T17:11:36.922Z,20.90
2023-05-23T17:14:05.193Z,20.40
2023-05-23T17:16:33.699Z,20.70
2023-05-23T17:19:02.411Z,20.90
2023-05-23T17:21:31.317Z,20.40
2023-05-23T17:24:00.879Z,21.30
2023-05-23T17:26:29.132Z,21.30
2023-05-23T17:28:57.437Z,21.20
2023-05-23T17:31:25.977Z,21.90
2023-05-23T17:33:54.654Z,21.90
2023-05-23T17:36:22.773Z,22.30
2023-05-23T17:38:53.553Z,22.10
2023-05-23T17:41:23.672Z,21.90
2023-05-23T17:43:51.882Z,22.50
2023-05-23T17:46:20.224Z,22.80
2023-05-23T17:48:48.450Z,22.80
2023-05-23T17:51:16.909Z,23.10
2023-05-23T17:53:45.162Z,22.80
2023-05-23T17:56:13.230Z,23.40
2023-05-23T17:58:44.319Z,23.90
2023-05-23T18:01:13.679Z,24.10
2023-05-23T18:03:41.884Z,24.20
2023-05-23T18:06:09.963Z,24.50
2023-05-23T18:08:38.001Z,24.50
2023-05-23T18:11:06.203Z,25.00
2023-05-23T18:13:34.286Z,24.60
2023-05-23T18:16:03.746Z,25.00
2023-05-23T18:18:32.510Z,25.10
2023-05-23T18:21:00.950Z,25.50
2023-05-23T18:23:29.096Z,25.10
2023-05-23T18:25:57.730Z,25.40
2023-05-23T18:28:25.856Z,25.50
2023-05-23T18:30:54.263Z,25.60
2023-05-23T18:33:24.396Z,25.90
2023-05-23T18:35:52.645Z,26.10
2023-05-23T18:38:20.858Z,26.20
2023-05-23T18:40:49.012Z,26.60
2023-05-23T18:43:17.702Z,26.90
2023-05-23T18:45:46.084Z,26.90
2023-05-23T18:48:14.720Z,27.50
2023-05-23T18:50:44.498Z,27.60
2023-05-23T18:53:12.798Z,28.30
2023-05-23T18:55:41.205Z,28.00
2023-05-23T18:58:09.276Z,27.90
2023-05-23T19:00:37.542Z,28.10
2023-05-23T19:03:05.800Z,28.50
2023-05-23T19:05:34.030Z,28.80
2023-05-23T19:08:03.729Z,29.00
2023-05-23T19:10:31.893Z,29.30
2023-05-23T19:13:00.024Z,29.70
2023-05-23T19:15:28.181Z,29.70
2023-05-23T19:17:56.924Z,29.70
2023-05-23T19:20:25.244Z,30.30
2023-05-23T19:22:53.813Z,30.80
2023-05-23T19:25:24.032Z,30.90
2023-05-23T19:27:52.632Z,31.10
2023-05-23T19:30:21.434Z,32.10
2023-05-23T19:32:49.759Z,32.80
2023-05-23T19:35:18.340Z,33.40
2023-05-23T19:37:46.770Z,33.50
2023-05-23T19:40:14.964Z,33.90
2023-05-23T19:42:44.481Z,35.00
2023-05-23T19:45:13.587Z,36.30
2023-05-23T19:47:41.980Z,36.30
2023-05-23T19:50:11.956Z,36.90
2023-05-23T19:52:40.078Z,36.40
2023-05-23T19:55:09.162Z,38.30
2023-05-23T19:57:37.400Z,38.60
2023-05-23T20:00:09.792Z,38.80
2023-05-23T20:02:38.591Z,40.10
2023-05-23T20:05:08.119Z,40.20
2023-05-23T20:07:37.603Z,39.80
2023-05-23T20:10:06.717Z,40.80
2023-05-23T20:12:34.968Z,40.70
2023-05-23T20:15:03.721Z,42.00
2023-05-23T20:17:33.422Z,43.00
2023-05-23T20:20:02.383Z,45.60
2023-05-23T20:22:30.475Z,45.70
2023-05-23T20:24:58.543Z,46.40
2023-05-23T20:27:26.802Z,47.10
2023-05-23T20:29:54.967Z,47.30
2023-05-23T20:32:23.022Z,46.20
2023-05-23T20:34:52.477Z,46.70
2023-05-23T20:37:20.556Z,48.40
2023-05-23T20:39:49.394Z,50.10
2023-05-23T20:42:17.690Z,50.70
2023-05-23T20:44:46.839Z,51.10
2023-05-23T20:47:17.643Z,49.40
2023-05-23T20:49:47.590Z,50.00
2023-05-23T20:52:17.648Z,51.30
2023-05-23T20:54:48.133Z,51.00
2023-05-23T20:57:16.381Z,52.30
2023-05-23T20:59:44.445Z,51.50
2023-05-23T21:02:13.670Z,52.70
2023-05-23T21:04:41.830Z,53.40
2023-05-23T21:07:09.901Z,55.40
2023-05-23T21:09:39.529Z,56.60
2023-05-23T21:12:10.628Z,57.50
2023-05-23T21:14:38.764Z,57.30
2023-05-23T21:17:06.969Z,57.40
2023-05-23T21:19:35.157Z,57.20
2023-05-23T21:22:03.401Z,58.40
2023-05-23T21:24:31.605Z,60.30
2023-05-23T21:27:01.733Z,60.20
2023-05-23T21:29:29.988Z,61.60
2023-05-23T21:31:58.089Z,63.80
2023-05-23T21:34:26.375Z,62.70
2023-05-23T21:36:54.879Z,63.70
2023-05-23T21:39:22.904Z,63.80
2023-05-23T21:41:51.476Z,64.30
2023-05-23T21:44:21.239Z,65.20
2023-05-23T21:46:49.420Z,65.10
2023-05-23T21:49:17.745Z,67.60
2023-05-23T21:51:45.987Z,69.20
2023-05-23T21:54:14.063Z,72.00
2023-05-23T21:56:42.281Z,74.20
2023-05-23T21:59:10.705Z,78.70
2023-05-23T22:01:40.161Z,82.20
2023-05-23T22:04:08.285Z,83.30
2023-05-23T22:06:36.677Z,81.00
2023-05-23T22:09:05.498Z,80.50
2023-05-23T22:11:34.745Z,81.40
2023-05-23T22:14:03.323Z,81.80
2023-05-23T22:16:32.878Z,82.70
2023-05-23T22:19:05.136Z,81.50
2023-05-23T22:21:33.346Z,81.40
2023-05-23T22:24:01.758Z,81.50
2023-05-23T22:26:30.159Z,81.20
2023-05-23T22:28:58.670Z,82.30
2023-05-23T22:31:28.862Z,84.80
2023-05-23T22:33:57.314Z,86.40
2023-05-23T22:36:26.758Z,85.90
2023-05-23T22:38:54.844Z,83.40
2023-05-23T22:41:23.399Z,85.10
2023-05-23T22:43:52.077Z,88.90
2023-05-23T22:46:20.195Z,86.90
2023-05-23T22:48:48.218Z,87.60
2023-05-23T22:51:16.480Z,87.60
2023-05-23T22:53:45.863Z,89.50
2023-05-23T22:56:15.162Z,85.80
2023-05-23T22:58:43.261Z,85.90
2023-05-23T23:01:11.435Z,83.00
2023-05-23T23:03:39.521Z,82.80
2023-05-23T23:06:09.200Z,81.70
2023-05-23T23:08:37.597Z,82.30
2023-05-23T23:11:07.189Z,81.40
2023-05-23T23:13:35.245Z,82.60
2023-05-23T23:16:03.310Z,82.40
2023-05-23T23:18:31.313Z,84.40
2023-05-23T23:20:59.499Z,85.60
2023-05-23T23:23:27.596Z,86.90
2023-05-23T23:25:56.110Z,89.50
2023-05-23T23:28:25.498Z,88.30
2023-05-23T23:30:53.597Z,89.60
2023-05-23T23:33:21.920Z,90.00
2023-05-23T23:35:51.728Z,90.50
2023-05-23T23:38:19.776Z,90.00
2023-05-23T23:40:47.872Z,89.90
2023-05-23T23:43:15.986Z,89.30
2023-05-23T23:45:45.466Z,89.50
2023-05-23T23:48:14.915Z,92.00
2023-05-23T23:50:43.291Z,91.20
2023-05-23T23:53:12.577Z,88.60
2023-05-23T23:55:40.748Z,90.30
2023-05-23T23:58:08.910Z,91.00
